Time;durP1;ratioP1;P1;durP2;ratioP2;P2;SDS_P1;SDS_P2;PMS_P1;PMS_P2;Temp;Humidity;BMP_temperature;BMP_pressure;BME280_temperature;BME280_humidity;BME280_pressure;Samples;Min_cycle;Max_cycle;Signal;HPM_P1;HPM_P2
2022/12/01 00:01:43;;;;;;;57.97;28.48;;;;;;;;;;5012014;28;99512;-62
2022/12/01 00:04:09;;;;;;;63.33;28.70;;;;;;;;;;5012588;28;97755;-63
2022/12/01 00:06:35;;;;;;;58.15;28.27;;;;;;;;;;5012370;28;98782;-62
2022/12/01 00:11:47;;;;;;;60.22;28.33;;;;;;;;;;5011388;28;99487;-62
2022/12/01 00:14:15;;;;;;;54.40;26.65;;;;;;;;;;5011712;28;100301;-63
2022/12/01 00:16:43;;;;;;;56.53;27.55;;;;;;;;;;5011854;28;99644;-62
2022/12/01 00:19:09;;;;;;;54.17;27.55;;;;;;;;;;5014986;28;98620;-62
2022/12/01 00:21:36;;;;;;;61.20;28.50;;;;;;;;;;5012428;28;99855;-62
2022/12/01 00:24:02;;;;;;;57.85;28.58;;;;;;;;;;5011985;28;98788;-62
2022/12/01 00:26:28;;;;;;;61.35;28.55;;;;;;;;;;5010383;28;99159;-63
2022/12/01 00:28:56;;;;;;;57.63;27.27;;;;;;;;;;5002215;28;98742;-63
2022/12/01 00:31:22;;;;;;;62.78;29.20;;;;;;;;;;5011990;28;98465;-63
2022/12/01 00:33:49;;;;;;;63.83;29.40;;;;;;;;;;5011693;28;99684;-62
2022/12/01 00:36:15;;;;;;;53.95;27.55;;;;;;;;;;5010476;28;100199;-62
2022/12/01 00:38:42;;;;;;;55.42;28.83;;;;;;;;;;5011977;28;98592;-63
2022/12/01 00:41:08;;;;;;;51.78;27.33;;;;;;;;;;5014633;28;99172;-63
2022/12/01 00:43:34;;;;;;;58.20;26.63;;;;;;;;;;5010509;28;98687;-63
2022/12/01 00:46:01;;;;;;;61.28;29.02;;;;;;;;;;5009783;28;99443;-62
2022/12/01 00:48:27;;;;;;;58.17;28.85;;;;;;;;;;5010656;28;100706;-63
2022/12/01 00:50:54;;;;;;;56.08;27.45;;;;;;;;;;5010011;28;98597;-63
2022/12/01 00:53:20;;;;;;;58.35;27.35;;;;;;;;;;5009777;28;99645;-64
2022/12/01 00:55:47;;;;;;;54.28;28.40;;;;;;;;;;5004443;28;99477;-63
2022/12/01 00:58:13;;;;;;;57.28;27.30;;;;;;;;;;5026838;28;98934;-63
2022/12/01 01:00:39;;;;;;;55.10;27.80;;;;;;;;;;5009071;28;100323;-62
2022/12/01 01:03:06;;;;;;;56.13;26.77;;;;;;;;;;5009697;28;100779;-62
2022/12/01 01:05:39;;;;;;;55.30;26.65;;;;;;;;;;5016562;28;99273;-62
2022/12/01 01:08:09;;;;;;;50.33;26.83;;;;;;;;;;5014284;27;99699;-62
2022/12/01 01:10:43;;;;;;;53.13;25.73;;;;;;;;;;5010614;28;98598;-62
2022/12/01 01:13:10;;;;;;;57.80;28.15;;;;;;;;;;5005731;28;99236;-61
2022/12/01 01:15:37;;;;;;;56.88;28.52;;;;;;;;;;5009028;28;99746;-62
2022/12/01 01:18:04;;;;;;;51.10;25.60;;;;;;;;;;5010712;28;98205;-62
2022/12/01 01:20:30;;;;;;;55.63;27.17;;;;;;;;;;5009568;28;98798;-61
2022/12/01 01:22:56;;;;;;;56.08;27.35;;;;;;;;;;5008038;28;99663;-62
2022/12/01 01:25:23;;;;;;;57.22;27.45;;;;;;;;;;5013896;28;99320;-62
2022/12/01 01:27:50;;;;;;;55.58;26.63;;;;;;;;;;5010088;28;98579;-61
2022/12/01 01:30:16;;;;;;;53.05;25.85;;;;;;;;;;5010250;28;100611;-62
2022/12/01 01:32:43;;;;;;;52.92;26.42;;;;;;;;;;5009883;28;99539;-62
2022/12/01 01:35:09;;;;;;;59.95;28.05;;;;;;;;;;5009240;28;99564;-62
2022/12/01 01:37:36;;;;;;;55.63;25.98;;;;;;;;;;4997546;28;99060;-62
2022/12/01 01:40:02;;;;;;;51.60;25.58;;;;;;;;;;5006928;28;101862;-62
2022/12/01 01:42:28;;;;;;;56.50;25.75;;;;;;;;;;5009503;28;98767;-62
2022/12/01 01:44:56;;;;;;;48.53;25.02;;;;;;;;;;5012781;28;98838;-62
2022/12/01 01:47:23;;;;;;;51.92;24.98;;;;;;;;;;5008481;28;99585;-62
2022/12/01 01:49:49;;;;;;;59.47;26.50;;;;;;;;;;5007908;28;99338;-62
2022/12/01 01:52:16;;;;;;;57.97;26.98;;;;;;;;;;5008892;28;100038;-62
2022/12/01 01:54:45;;;;;;;53.80;26.33;;;;;;;;;;5009237;28;100715;-62
2022/12/01 01:57:12;;;;;;;54.25;26.75;;;;;;;;;;5009543;28;98499;-62
2022/12/01 01:59:44;;;;;;;54.58;25.90;;;;;;;;;;5009369;28;99294;-63
2022/12/01 02:02:11;;;;;;;52.72;24.13;;;;;;;;;;5004031;28;99460;-62
2022/12/01 02:04:40;;;;;;;52.53;25.33;;;;;;;;;;5007278;28;99526;-63
2022/12/01 02:07:07;;;;;;;62.22;27.00;;;;;;;;;;5018877;28;99357;-63
2022/12/01 02:09:35;;;;;;;59.78;27.17;;;;;;;;;;5007296;28;98830;-62
2022/12/01 02:12:10;;;;;;;57.75;26.88;;;;;;;;;;5021854;28;99947;-62
2022/12/01 02:14:53;;;;;;;58.03;26.20;;;;;;;;;;5007365;28;100141;-63
2022/12/01 02:17:38;;;;;;;58.35;26.67;;;;;;;;;;5006974;27;98571;-62
2022/12/01 02:20:16;;;;;;;63.92;28.05;;;;;;;;;;5007504;28;99334;-62
2022/12/01 02:23:01;;;;;;;62.08;27.77;;;;;;;;;;5011946;27;99636;-62
2022/12/01 02:25:37;;;;;;;60.10;26.95;;;;;;;;;;5015609;27;99421;-63
2022/12/01 02:28:03;;;;;;;59.88;27.95;;;;;;;;;;5011287;28;99711;-63
2022/12/01 02:30:32;;;;;;;69.50;28.67;;;;;;;;;;5013042;28;98884;-63
2022/12/01 02:33:03;;;;;;;68.05;28.45;;;;;;;;;;5009682;28;100408;-63
2022/12/01 02:35:29;;;;;;;;;;;;;;;;;;5008914;28;99481;-63
2022/12/01 02:38:02;;;;;;;60.38;27.65;;;;;;;;;;5018910;27;119110;-63
2022/12/01 02:40:45;;;;;;;63.53;28.55;;;;;;;;;;5009985;28;99803;-63
2022/12/01 02:43:26;;;;;;;66.05;27.90;;;;;;;;;;5010119;28;100049;-63
2022/12/01 02:45:55;;;;;;;66.50;29.45;;;;;;;;;;5019709;27;99143;-63
2022/12/01 02:48:29;;;;;;;65.82;28.15;;;;;;;;;;5009211;27;99446;-63
2022/12/01 02:50:58;;;;;;;62.05;26.70;;;;;;;;;;5002907;28;100052;-64
2022/12/01 02:53:24;;;;;;;61.17;27.90;;;;;;;;;;5013253;27;98970;-63
2022/12/01 02:55:52;;;;;;;60.80;26.73;;;;;;;;;;5005965;28;100541;-63
2022/12/01 02:58:18;;;;;;;68.30;27.92;;;;;;;;;;5009013;28;97750;-62
2022/12/01 03:01:04;;;;;;;62.40;28.23;;;;;;;;;;5007806;28;99999;-63
2022/12/01 03:03:44;;;;;;;63.20;27.80;;;;;;;;;;4995725;28;100044;-63
2022/12/01 03:06:19;;;;;;;63.60;28.42;;;;;;;;;;5006440;28;99257;-63
2022/12/01 03:09:01;;;;;;;67.72;27.98;;;;;;;;;;5007495;28;101300;-63
2022/12/01 03:11:55;;;;;;;58.45;28.15;;;;;;;;;;5010665;28;100752;-63
2022/12/01 03:14:30;;;;;;;70.07;28.73;;;;;;;;;;5018210;27;98672;-63
2022/12/01 03:16:58;;;;;;;67.70;29.33;;;;;;;;;;5009074;28;99255;-64
2022/12/01 03:19:24;;;;;;;65.82;28.50;;;;;;;;;;5005846;28;98964;-63
2022/12/01 03:21:59;;;;;;;66.53;29.13;;;;;;;;;;5008707;28;100467;-63
2022/12/01 03:24:26;;;;;;;67.75;29.83;;;;;;;;;;5014336;28;99415;-63
2022/12/01 03:26:55;;;;;;;63.22;27.70;;;;;;;;;;5016160;27;98861;-63
2022/12/01 03:29:26;;;;;;;69.63;30.95;;;;;;;;;;5007232;28;100656;-63
2022/12/01 03:31:55;;;;;;;63.58;28.30;;;;;;;;;;4994377;28;100170;-63
2022/12/01 03:34:35;;;;;;;66.35;27.42;;;;;;;;;;5008214;28;99454;-63
2022/12/01 03:37:06;;;;;;;61.75;26.98;;;;;;;;;;5008493;28;99555;-61
2022/12/01 03:39:32;;;;;;;;;;;;;;;;;;4999023;28;100497;-62
2022/12/01 03:42:01;;;;;;;70.65;28.80;;;;;;;;;;5008371;28;129511;-62
2022/12/01 03:44:33;;;;;;;58.50;25.17;;;;;;;;;;5007892;28;99577;-62
2022/12/01 03:47:03;;;;;;;61.28;27.67;;;;;;;;;;5011897;28;98563;-61
2022/12/01 03:49:29;;;;;;;56.08;26.77;;;;;;;;;;5025343;28;99396;-62
2022/12/01 03:52:14;;;;;;;63.70;27.35;;;;;;;;;;5010160;28;99529;-62
2022/12/01 03:54:50;;;;;;;67.70;28.27;;;;;;;;;;5011304;28;99110;-62
2022/12/01 03:57:22;;;;;;;70.78;28.55;;;;;;;;;;5009485;28;100372;-62
2022/12/01 03:59:48;;;;;;;76.25;27.90;;;;;;;;;;5013487;28;99583;-63
2022/12/01 04:02:16;;;;;;;62.15;26.38;;;;;;;;;;5011317;28;100467;-62
2022/12/01 04:04:42;;;;;;;61.17;27.42;;;;;;;;;;5010772;28;99341;-63
2022/12/01 04:07:12;;;;;;;58.78;26.42;;;;;;;;;;5016199;28;98528;-63
2022/12/01 04:09:41;;;;;;;59.97;25.87;;;;;;;;;;5012266;28;99274;-63
2022/12/01 04:12:28;;;;;;;57.00;26.55;;;;;;;;;;5003246;28;99837;-63
2022/12/01 04:14:56;;;;;;;55.42;26.27;;;;;;;;;;5018957;27;98109;-63
2022/12/01 04:17:23;;;;;;;59.45;26.08;;;;;;;;;;5006062;28;102209;-62
2022/12/01 04:19:49;;;;;;;64.18;27.75;;;;;;;;;;5010972;28;99389;-62
2022/12/01 04:22:16;;;;;;;63.63;26.58;;;;;;;;;;5010715;28;99511;-62
2022/12/01 04:24:42;;;;;;;59.85;26.50;;;;;;;;;;5010504;28;99502;-62
2022/12/01 04:27:08;;;;;;;62.33;26.10;;;;;;;;;;5021221;28;100284;-63
2022/12/01 04:29:35;;;;;;;57.88;24.10;;;;;;;;;;5011399;28;99882;-64
2022/12/01 04:32:01;;;;;;;59.40;26.20;;;;;;;;;;5008351;28;99656;-62
2022/12/01 04:34:27;;;;;;;56.80;26.25;;;;;;;;;;5005453;28;99294;-62
2022/12/01 04:36:54;;;;;;;62.35;25.75;;;;;;;;;;5009093;28;99348;-62
2022/12/01 04:39:20;;;;;;;63.03;28.00;;;;;;;;;;5009493;28;99079;-61
2022/12/01 04:41:46;;;;;;;62.03;27.05;;;;;;;;;;5009849;28;98543;-61
2022/12/01 04:44:13;;;;;;;57.22;26.98;;;;;;;;;;5013967;28;99552;-62
2022/12/01 04:46:39;;;;;;;61.20;26.40;;;;;;;;;;5009917;28;99333;-63
2022/12/01 04:49:05;;;;;;;64.25;27.13;;;;;;;;;;4998426;28;100192;-62
2022/12/01 04:51:33;;;;;;;59.42;26.95;;;;;;;;;;5019060;28;98956;-62
2022/12/01 04:54:00;;;;;;;61.08;25.65;;;;;;;;;;5019549;28;98619;-62
2022/12/01 04:56:26;;;;;;;67.82;26.92;;;;;;;;;;5012841;28;100301;-62
2022/12/01 04:58:52;;;;;;;59.75;26.88;;;;;;;;;;5015458;28;100546;-62
2022/12/01 05:01:19;;;;;;;59.75;26.63;;;;;;;;;;5015411;28;99369;-63
2022/12/01 05:03:48;;;;;;;63.58;27.35;;;;;;;;;;5015902;28;100623;-62
2022/12/01 05:06:19;;;;;;;66.55;27.23;;;;;;;;;;5020789;27;99691;-63
2022/12/01 05:08:45;;;;;;;;;;;;;;;;;;4996316;28;100321;-62
2022/12/01 05:11:12;;;;;;;64.15;27.08;;;;;;;;;;5013264;28;130895;-63
2022/12/01 05:13:39;;;;;;;58.78;26.92;;;;;;;;;;5010452;28;98538;-62
2022/12/01 05:16:07;;;;;;;64.90;28.25;;;;;;;;;;5009525;28;99955;-62
2022/12/01 05:18:34;;;;;;;56.72;26.00;;;;;;;;;;4998582;28;99451;-62
2022/12/01 05:21:02;;;;;;;63.67;28.13;;;;;;;;;;5011138;28;98482;-62
2022/12/01 05:23:30;;;;;;;62.33;27.25;;;;;;;;;;5025380;28;100610;-63
2022/12/01 05:25:56;;;;;;;60.22;26.70;;;;;;;;;;5014125;27;100572;-63
2022/12/01 05:28:24;;;;;;;63.90;28.13;;;;;;;;;;5016871;28;97884;-62
2022/12/01 05:30:50;;;;;;;59.25;27.00;;;;;;;;;;5011151;28;100213;-62
2022/12/01 05:33:16;;;;;;;64.38;27.15;;;;;;;;;;5009329;28;98697;-63
2022/12/01 05:35:43;;;;;;;55.72;26.88;;;;;;;;;;5009448;28;99822;-62
2022/12/01 05:38:09;;;;;;;65.60;26.75;;;;;;;;;;5008360;28;100705;-63
2022/12/01 05:40:35;;;;;;;64.32;26.80;;;;;;;;;;5000390;28;98587;-62
2022/12/01 05:43:02;;;;;;;67.60;27.52;;;;;;;;;;5009948;28;99590;-62
2022/12/01 05:45:28;;;;;;;69.97;27.92;;;;;;;;;;5011817;27;99774;-62
2022/12/01 05:47:55;;;;;;;61.92;26.10;;;;;;;;;;5027772;27;98651;-62
2022/12/01 05:50:22;;;;;;;59.47;26.55;;;;;;;;;;5022542;27;99193;-62
2022/12/01 05:52:48;;;;;;;65.40;27.92;;;;;;;;;;5027492;27;98420;-62
2022/12/01 05:55:15;;;;;;;65.18;27.73;;;;;;;;;;5025660;27;98522;-62
2022/12/01 05:57:41;;;;;;;67.53;27.58;;;;;;;;;;5026968;27;100157;-63
2022/12/01 06:00:08;;;;;;;62.60;28.65;;;;;;;;;;5024537;27;99470;-62
2022/12/01 06:02:34;;;;;;;60.13;26.10;;;;;;;;;;5029076;27;100043;-62
2022/12/01 06:05:00;;;;;;;67.35;29.02;;;;;;;;;;5025617;27;99897;-63
2022/12/01 06:07:27;;;;;;;74.32;29.27;;;;;;;;;;4999988;28;98595;-62
2022/12/01 06:09:53;;;;;;;68.78;28.88;;;;;;;;;;5012838;28;99287;-62
2022/12/01 06:12:19;;;;;;;59.75;27.33;;;;;;;;;;5009248;28;98724;-62
2022/12/01 06:14:46;;;;;;;69.18;27.80;;;;;;;;;;5009140;28;99656;-62
2022/12/01 06:17:12;;;;;;;65.60;27.48;;;;;;;;;;5009069;28;99221;-62
2022/12/01 06:19:38;;;;;;;65.80;27.33;;;;;;;;;;5009532;28;98557;-63
2022/12/01 06:22:04;;;;;;;65.53;27.15;;;;;;;;;;5008766;28;99148;-62
2022/12/01 06:24:31;;;;;;;67.38;27.10;;;;;;;;;;5007606;28;100249;-62
2022/12/01 06:26:57;;;;;;;67.65;26.75;;;;;;;;;;5009459;28;98553;-62
2022/12/01 06:29:23;;;;;;;75.32;27.55;;;;;;;;;;5008422;28;99545;-62
2022/12/01 06:31:50;;;;;;;63.88;25.90;;;;;;;;;;5012021;28;99487;-63
2022/12/01 06:34:16;;;;;;;58.50;25.02;;;;;;;;;;5008549;28;99602;-62
2022/12/01 06:36:42;;;;;;;57.58;25.75;;;;;;;;;;5008928;28;100478;-63
2022/12/01 06:39:09;;;;;;;73.43;26.20;;;;;;;;;;5026944;27;98503;-62
2022/12/01 06:41:36;;;;;;;69.82;26.58;;;;;;;;;;5019564;27;99748;-63
2022/12/01 06:44:03;;;;;;;67.03;27.10;;;;;;;;;;5011089;28;99577;-63
2022/12/01 06:46:29;;;;;;;64.40;25.90;;;;;;;;;;5019381;28;99030;-62
2022/12/01 06:48:56;;;;;;;67.00;26.08;;;;;;;;;;5006218;28;100905;-63
2022/12/01 06:51:22;;;;;;;66.35;25.55;;;;;;;;;;5014325;28;100045;-63
2022/12/01 06:53:52;;;;;;;57.95;25.08;;;;;;;;;;5015513;28;98690;-62
2022/12/01 06:56:18;;;;;;;56.60;24.98;;;;;;;;;;5021044;28;99852;-63
2022/12/01 06:58:45;;;;;;;63.60;25.58;;;;;;;;;;5013848;28;98542;-62
2022/12/01 07:01:12;;;;;;;64.13;25.75;;;;;;;;;;5010479;28;100730;-63
2022/12/01 07:03:38;;;;;;;66.38;26.60;;;;;;;;;;5003537;28;99557;-62
2022/12/01 07:06:05;;;;;;;66.85;26.58;;;;;;;;;;5003841;28;97882;-63
2022/12/01 07:08:31;;;;;;;69.88;25.50;;;;;;;;;;5005463;28;99593;-63
2022/12/01 07:11:02;;;;;;;62.90;25.35;;;;;;;;;;5010075;27;102643;-64
2022/12/01 07:13:29;;;;;;;52.00;23.33;;;;;;;;;;5012581;27;99273;-63
2022/12/01 07:16:00;;;;;;;55.53;22.67;;;;;;;;;;5006763;28;100069;-62
2022/12/01 07:18:26;;;;;;;61.40;25.33;;;;;;;;;;5006229;28;98580;-63
2022/12/01 07:20:52;;;;;;;54.13;23.90;;;;;;;;;;5000593;28;100335;-62
2022/12/01 07:23:20;;;;;;;59.45;23.80;;;;;;;;;;5006342;28;98693;-62
2022/12/01 07:25:46;;;;;;;54.53;22.80;;;;;;;;;;5015988;28;98619;-62
2022/12/01 07:28:12;;;;;;;61.15;24.08;;;;;;;;;;5010160;28;99612;-62
2022/12/01 07:30:38;;;;;;;57.38;23.85;;;;;;;;;;5011739;28;98739;-62
2022/12/01 07:33:05;;;;;;;50.70;22.30;;;;;;;;;;5019919;27;98614;-62
2022/12/01 07:35:31;;;;;;;60.03;25.00;;;;;;;;;;5013774;27;99129;-62
2022/12/01 07:37:57;;;;;;;55.53;23.33;;;;;;;;;;5013362;27;100756;-63
2022/12/01 07:40:24;;;;;;;52.05;23.10;;;;;;;;;;5004438;28;100251;-63
2022/12/01 07:42:50;;;;;;;68.28;24.83;;;;;;;;;;5005657;28;99495;-62
2022/12/01 07:45:16;;;;;;;63.72;24.50;;;;;;;;;;5006367;28;98794;-61
2022/12/01 07:47:43;;;;;;;66.72;25.58;;;;;;;;;;4997930;28;99249;-62
2022/12/01 07:50:10;;;;;;;59.20;23.67;;;;;;;;;;5006438;28;98894;-63
2022/12/01 07:52:36;;;;;;;63.60;23.35;;;;;;;;;;5005961;28;98688;-62
2022/12/01 07:55:02;;;;;;;61.50;24.25;;;;;;;;;;5008566;28;99187;-63
2022/12/01 07:57:28;;;;;;;66.03;24.85;;;;;;;;;;5005815;28;100870;-62
2022/12/01 07:59:55;;;;;;;67.20;25.48;;;;;;;;;;5013151;27;98607;-63
2022/12/01 08:02:21;;;;;;;80.18;27.25;;;;;;;;;;5012780;27;103520;-62
2022/12/01 08:04:47;;;;;;;66.10;26.92;;;;;;;;;;5008606;28;98549;-63
2022/12/01 08:07:14;;;;;;;74.57;29.17;;;;;;;;;;5004569;28;99982;-62
2022/12/01 08:09:40;;;;;;;76.90;29.15;;;;;;;;;;5006647;27;99548;-62
2022/12/01 08:12:06;;;;;;;73.72;29.42;;;;;;;;;;5014458;27;98501;-62
2022/12/01 08:14:32;;;;;;;86.75;30.25;;;;;;;;;;5007428;28;99633;-62
2022/12/01 08:16:59;;;;;;;81.05;31.50;;;;;;;;;;5010246;28;100791;-62
2022/12/01 08:19:26;;;;;;;76.57;30.65;;;;;;;;;;5011327;28;98176;-63
2022/12/01 08:21:52;;;;;;;79.57;32.90;;;;;;;;;;5009907;28;99805;-63
2022/12/01 08:24:19;;;;;;;81.07;30.75;;;;;;;;;;5010943;28;98532;-63
2022/12/01 08:26:45;;;;;;;90.43;32.22;;;;;;;;;;5010226;28;99642;-63
2022/12/01 08:29:11;;;;;;;83.70;32.47;;;;;;;;;;5012985;28;99548;-62
2022/12/01 08:31:45;;;;;;;83.25;32.20;;;;;;;;;;5010755;28;98528;-62
2022/12/01 08:34:11;;;;;;;94.80;35.10;;;;;;;;;;5010401;28;99250;-63
2022/12/01 08:36:37;;;;;;;80.07;33.53;;;;;;;;;;5011900;28;99317;-63
2022/12/01 08:39:03;;;;;;;97.15;34.97;;;;;;;;;;5014983;28;98585;-63
2022/12/01 08:41:30;;;;;;;87.70;33.97;;;;;;;;;;5018877;27;100367;-62
2022/12/01 08:43:58;;;;;;;84.32;35.08;;;;;;;;;;5017053;28;98159;-63
2022/12/01 08:46:34;;;;;;;92.95;36.50;;;;;;;;;;5014479;28;98515;-63
2022/12/01 08:49:01;;;;;;;93.68;35.47;;;;;;;;;;5011596;28;99639;-63
2022/12/01 08:51:27;;;;;;;79.75;33.67;;;;;;;;;;5007935;28;99400;-62
2022/12/01 08:53:55;;;;;;;94.20;36.35;;;;;;;;;;5008610;28;99918;-64
2022/12/01 08:56:25;;;;;;;95.85;36.85;;;;;;;;;;5012325;28;99761;-64
2022/12/01 08:58:52;;;;;;;;;;;;;;;;;;5010861;28;98644;-62
2022/12/01 09:01:18;;;;;;;91.43;35.78;;;;;;;;;;5022775;28;129997;-64
2022/12/01 09:03:45;;;;;;;89.00;36.53;;;;;;;;;;5023916;28;99775;-61
2022/12/01 09:06:16;;;;;;;89.15;36.25;;;;;;;;;;5011266;28;99257;-62
2022/12/01 09:08:43;;;;;;;88.30;37.25;;;;;;;;;;5020747;28;99799;-63
2022/12/01 09:11:10;;;;;;;92.65;37.47;;;;;;;;;;5017722;27;98947;-62
2022/12/01 09:13:38;;;;;;;95.47;37.80;;;;;;;;;;5008497;28;99300;-63
2022/12/01 09:16:06;;;;;;;96.63;38.53;;;;;;;;;;5009992;28;100816;-62
2022/12/01 09:18:33;;;;;;;91.20;38.08;;;;;;;;;;5003230;28;98744;-62
2022/12/01 09:20:59;;;;;;;90.25;37.13;;;;;;;;;;5038900;27;100669;-63
2022/12/01 09:23:25;;;;;;;90.80;37.28;;;;;;;;;;5027604;27;99854;-63
2022/12/01 09:25:52;;;;;;;86.03;35.20;;;;;;;;;;5031273;27;98707;-63
2022/12/01 09:28:18;;;;;;;90.93;35.72;;;;;;;;;;5011992;28;99550;-64
2022/12/01 09:30:45;;;;;;;85.72;35.42;;;;;;;;;;5030695;27;98511;-64
2022/12/01 09:33:12;;;;;;;88.22;36.95;;;;;;;;;;5014973;27;100203;-63
2022/12/01 09:35:38;;;;;;;90.90;36.70;;;;;;;;;;5006665;28;99572;-64
2022/12/01 09:38:04;;;;;;;82.45;35.08;;;;;;;;;;5011648;28;98538;-62
2022/12/01 09:40:34;;;;;;;87.40;36.85;;;;;;;;;;5024034;28;99670;-61
2022/12/01 09:43:02;;;;;;;84.40;36.97;;;;;;;;;;5008932;27;99413;-62
2022/12/01 09:45:30;;;;;;;80.50;34.35;;;;;;;;;;5005583;28;100673;-62
2022/12/01 09:47:58;;;;;;;77.35;34.72;;;;;;;;;;5018567;28;99242;-62
2022/12/01 09:50:26;;;;;;;81.68;35.38;;;;;;;;;;5018677;27;98579;-63
2022/12/01 09:53:01;;;;;;;74.43;33.35;;;;;;;;;;5010807;28;100341;-67
2022/12/01 09:55:29;;;;;;;75.45;34.60;;;;;;;;;;5009693;28;99508;-67
2022/12/01 09:57:56;;;;;;;75.88;33.63;;;;;;;;;;5016140;28;99664;-67
2022/12/01 10:00:25;;;;;;;77.80;36.13;;;;;;;;;;5030354;27;98828;-66
2022/12/01 10:02:53;;;;;;;71.85;35.05;;;;;;;;;;5027490;27;100849;-68
2022/12/01 10:05:21;;;;;;;75.65;33.55;;;;;;;;;;5010931;28;99675;-67
2022/12/01 10:07:51;;;;;;;72.60;33.40;;;;;;;;;;5020409;28;100331;-67
2022/12/01 10:10:29;;;;;;;73.85;34.97;;;;;;;;;;5003752;27;98535;-66
2022/12/01 10:12:55;;;;;;;70.88;32.78;;;;;;;;;;4990035;28;99699;-65
2022/12/01 10:15:44;;;;;;;68.57;32.75;;;;;;;;;;4996192;28;99497;-67
2022/12/01 10:18:13;;;;;;;70.95;32.15;;;;;;;;;;5009804;28;98614;-68
2022/12/01 10:20:44;;;;;;;68.05;32.70;;;;;;;;;;5008706;28;100202;-68
2022/12/01 10:23:10;;;;;;;;;;;;;;;;;;5010672;28;98864;-68
2022/12/01 10:25:42;;;;;;;71.05;33.00;;;;;;;;;;5021333;28;120596;-67
2022/12/01 10:28:19;;;;;;;70.45;34.08;;;;;;;;;;5021949;27;99215;-67
2022/12/01 10:30:50;;;;;;;71.10;34.17;;;;;;;;;;5011479;28;100274;-68
2022/12/01 10:33:24;;;;;;;73.13;34.40;;;;;;;;;;5020227;28;100096;-67
2022/12/01 10:35:51;;;;;;;76.18;35.05;;;;;;;;;;5012836;27;99563;-68
2022/12/01 10:38:31;;;;;;;72.00;34.65;;;;;;;;;;5021023;27;99266;-69
2022/12/01 10:40:59;;;;;;;77.20;33.95;;;;;;;;;;4989963;28;99309;-68
2022/12/01 10:43:30;;;;;;;70.05;34.53;;;;;;;;;;4988368;28;100622;-67
2022/12/01 10:45:56;;;;;;;;;;;;;;;;;;5004639;28;98535;-68
2022/12/01 10:48:23;;;;;;;82.28;33.30;;;;;;;;;;5011774;28;129370;-68
2022/12/01 10:50:50;;;;;;;77.18;33.80;;;;;;;;;;5008515;28;99852;-69
2022/12/01 10:53:28;;;;;;;72.80;34.30;;;;;;;;;;5010789;28;99263;-70
2022/12/01 10:55:57;;;;;;;74.30;34.70;;;;;;;;;;5006822;28;100565;-69
2022/12/01 10:58:24;;;;;;;73.28;34.63;;;;;;;;;;5011173;27;98555;-68
2022/12/01 11:00:59;;;;;;;77.32;34.80;;;;;;;;;;5006635;28;99111;-69
2022/12/01 11:03:28;;;;;;;73.95;35.17;;;;;;;;;;5014638;27;99649;-69
2022/12/01 11:05:57;;;;;;;73.35;35.20;;;;;;;;;;5004802;28;100414;-69
2022/12/01 11:08:29;;;;;;;73.30;36.33;;;;;;;;;;5009213;28;100806;-72
2022/12/01 11:10:55;;;;;;;72.57;34.75;;;;;;;;;;5021969;27;99917;-69
2022/12/01 11:13:23;;;;;;;67.32;33.10;;;;;;;;;;5009559;28;97780;-68
2022/12/01 11:15:53;;;;;;;64.30;32.42;;;;;;;;;;5011769;28;98498;-69
2022/12/01 11:18:20;;;;;;;;;;;;;;;;;;5023534;28;98719;-70
2022/12/01 11:20:47;;;;;;;63.03;30.25;;;;;;;;;;5021493;27;129447;-70
2022/12/01 11:23:16;;;;;;;59.33;29.13;;;;;;;;;;5018898;28;99537;-68
2022/12/01 11:26:01;;;;;;;54.38;29.58;;;;;;;;;;5029384;27;99056;-67
2022/12/01 11:28:28;;;;;;;57.10;30.33;;;;;;;;;;5027827;28;100318;-69
2022/12/01 11:30:56;;;;;;;56.20;30.88;;;;;;;;;;5028820;27;100147;-70
2022/12/01 11:33:22;;;;;;;56.58;29.80;;;;;;;;;;5029544;28;98729;-69
2022/12/01 11:35:48;;;;;;;52.60;30.20;;;;;;;;;;5023703;27;99262;-70
2022/12/01 11:38:22;;;;;;;58.33;32.45;;;;;;;;;;5002770;27;98761;-68
2022/12/01 11:40:56;;;;;;;55.10;32.10;;;;;;;;;;5009365;28;99519;-69
2022/12/01 11:43:30;;;;;;;55.25;30.48;;;;;;;;;;5024423;27;102178;-67
2022/12/01 11:45:58;;;;;;;50.33;30.48;;;;;;;;;;4998625;28;99351;-68
2022/12/01 11:48:27;;;;;;;50.40;30.55;;;;;;;;;;5000592;28;100006;-67
2022/12/01 11:51:07;;;;;;;55.15;30.95;;;;;;;;;;4997758;28;99543;-67
2022/12/01 11:53:38;;;;;;;47.60;28.50;;;;;;;;;;5013500;28;99887;-67
2022/12/01 11:56:13;;;;;;;45.72;28.02;;;;;;;;;;5016161;27;100207;-67
2022/12/01 11:58:40;;;;;;;48.75;29.08;;;;;;;;;;5023597;27;99547;-68
2022/12/01 12:01:13;;;;;;;44.20;27.80;;;;;;;;;;5029134;27;98701;-68
2022/12/01 12:04:05;;;;;;;47.90;29.05;;;;;;;;;;5031194;27;99307;-68
2022/12/01 12:06:43;;;;;;;47.53;28.02;;;;;;;;;;5031999;27;98482;-67
2022/12/01 12:09:09;;;;;;;45.90;27.20;;;;;;;;;;5027107;27;99559;-69
2022/12/01 12:11:40;;;;;;;43.28;27.05;;;;;;;;;;5011350;28;100334;-68
2022/12/01 12:14:25;;;;;;;44.38;27.13;;;;;;;;;;4991942;28;99390;-69
2022/12/01 12:17:11;;;;;;;43.78;27.17;;;;;;;;;;5008204;28;99466;-69
2022/12/01 12:19:43;;;;;;;45.58;26.92;;;;;;;;;;5010987;28;99559;-68
2022/12/01 12:22:29;;;;;;;39.55;25.73;;;;;;;;;;5035368;27;98536;-68
2022/12/01 12:24:56;;;;;;;44.40;26.65;;;;;;;;;;5008719;27;99445;-68
2022/12/01 12:27:37;;;;;;;41.92;25.50;;;;;;;;;;4996536;28;100008;-67
2022/12/01 12:30:18;;;;;;;42.38;26.90;;;;;;;;;;5007493;28;100498;-68
2022/12/01 12:32:45;;;;;;;47.22;27.35;;;;;;;;;;5011377;28;99681;-68
2022/12/01 12:35:17;;;;;;;43.70;26.05;;;;;;;;;;5011500;28;98633;-68
2022/12/01 12:37:51;;;;;;;44.17;26.73;;;;;;;;;;5023353;28;99528;-68
2022/12/01 12:40:23;;;;;;;42.15;25.98;;;;;;;;;;5022458;27;99500;-68
2022/12/01 12:43:09;;;;;;;41.72;26.15;;;;;;;;;;5011166;28;98615;-68
2022/12/01 12:45:35;;;;;;;41.92;25.83;;;;;;;;;;5014870;28;99380;-68
2022/12/01 12:48:07;;;;;;;44.95;26.35;;;;;;;;;;5015719;28;98544;-68
2022/12/01 12:50:51;;;;;;;46.95;26.73;;;;;;;;;;5026750;27;99273;-68
2022/12/01 12:53:23;;;;;;;43.70;25.95;;;;;;;;;;5030159;28;100524;-68
2022/12/01 12:55:51;;;;;;;45.10;27.08;;;;;;;;;;5027299;28;97934;-67
2022/12/01 12:58:33;;;;;;;45.00;26.92;;;;;;;;;;5022352;27;98543;-68
2022/12/01 13:01:02;;;;;;;48.33;27.27;;;;;;;;;;5004854;28;100507;-68
2022/12/01 13:03:28;;;;;;;47.22;26.70;;;;;;;;;;5012959;28;99927;-67
2022/12/01 13:06:02;;;;;;;50.72;27.75;;;;;;;;;;5028729;27;100389;-68
2022/12/01 13:08:33;;;;;;;46.95;26.80;;;;;;;;;;5034800;27;99780;-67
2022/12/01 13:11:23;;;;;;;52.25;29.50;;;;;;;;;;5031256;27;99313;-68
2022/12/01 13:13:52;;;;;;;50.92;28.38;;;;;;;;;;5029546;28;99816;-68
2022/12/01 13:16:29;;;;;;;50.67;27.45;;;;;;;;;;5018912;27;98724;-67
2022/12/01 13:19:03;;;;;;;51.28;28.45;;;;;;;;;;5010979;28;99309;-66
2022/12/01 13:21:35;;;;;;;49.53;27.17;;;;;;;;;;5018763;28;99111;-72
2022/12/01 13:24:02;;;;;;;48.00;27.35;;;;;;;;;;5019722;27;99236;-68
2022/12/01 13:26:29;;;;;;;59.78;26.88;;;;;;;;;;5017227;28;100431;-68
2022/12/01 13:28:56;;;;;;;46.95;25.15;;;;;;;;;;5029185;28;102653;-69
2022/12/01 13:31:23;;;;;;;44.58;25.80;;;;;;;;;;5034496;27;98512;-69
2022/12/01 13:34:02;;;;;;;45.42;25.05;;;;;;;;;;5024764;27;99562;-69
2022/12/01 13:36:29;;;;;;;52.28;27.65;;;;;;;;;;5008281;28;98825;-69
2022/12/01 13:39:20;;;;;;;51.65;27.20;;;;;;;;;;5010661;28;99059;-66
2022/12/01 13:41:55;;;;;;;49.10;27.45;;;;;;;;;;5007900;28;99844;-69
2022/12/01 13:44:23;;;;;;;49.22;27.20;;;;;;;;;;5000436;28;99019;-69
2022/12/01 13:46:49;;;;;;;49.75;27.38;;;;;;;;;;5005872;28;99259;-67
2022/12/01 13:49:35;;;;;;;48.15;26.20;;;;;;;;;;5008984;28;99873;-67
2022/12/01 13:52:20;;;;;;;46.70;26.75;;;;;;;;;;5018094;28;98934;-68
2022/12/01 13:55:01;;;;;;;48.33;27.55;;;;;;;;;;5031251;27;99784;-68
2022/12/01 13:57:29;;;;;;;50.00;26.98;;;;;;;;;;5030816;27;98784;-66
2022/12/01 13:59:58;;;;;;;48.33;27.15;;;;;;;;;;5030393;27;99190;-67
2022/12/01 14:02:29;;;;;;;53.47;27.35;;;;;;;;;;5016040;28;100635;-67
2022/12/01 14:05:14;;;;;;;45.55;25.40;;;;;;;;;;5019150;28;98978;-68
2022/12/01 14:07:40;;;;;;;50.50;27.02;;;;;;;;;;5030056;27;99202;-66
2022/12/01 14:10:22;;;;;;;43.85;25.33;;;;;;;;;;5029645;27;99748;-66
2022/12/01 14:12:50;;;;;;;44.03;24.83;;;;;;;;;;5030725;27;98142;-67
2022/12/01 14:15:28;;;;;;;52.40;25.60;;;;;;;;;;5022929;28;98668;-69
2022/12/01 14:18:03;;;;;;;50.13;26.13;;;;;;;;;;5014629;28;99484;-67
2022/12/01 14:20:31;;;;;;;47.83;24.58;;;;;;;;;;5007648;28;99628;-68
2022/12/01 14:23:02;;;;;;;45.00;24.60;;;;;;;;;;5008306;28;102354;-69
2022/12/01 14:25:29;;;;;;;43.85;25.30;;;;;;;;;;5010135;28;98451;-72
2022/12/01 14:27:57;;;;;;;45.20;24.55;;;;;;;;;;5010078;28;100422;-70
2022/12/01 14:30:39;;;;;;;49.50;25.65;;;;;;;;;;5009626;28;99496;-69
2022/12/01 14:33:23;;;;;;;56.00;26.50;;;;;;;;;;5005630;28;100007;-70